Time;durP1;ratioP1;P1;durP2;ratioP2;P2;SDS_P1;SDS_P2;PMS_P1;PMS_P2;Temp;Humidity;BMP_temperature;BMP_pressure;BME280_temperature;BME280_humidity;BME280_pressure;Samples;Min_cycle;Max_cycle;Signal;HPM_P1;HPM_P2
2022/09/04 00:00:29;;;;;;;;;;;;;;;-144.99;70.23;52174.97;4999194;28;19926;-69
2022/09/04 00:03:02;;;;;;;;;;;;;;;-144.99;70.60;52187.19;4995296;28;19932;-68
2022/09/04 00:05:31;;;;;;;;;;;;;;;-144.99;71.23;52150.53;4997038;28;19930;-68
2022/09/04 00:08:03;;;;;;;;;;;;;;;-144.99;71.72;52187.19;4997738;28;19936;-68
2022/09/04 00:10:36;;;;;;;;;;;;;;;-144.99;72.31;52142.38;4999408;28;19926;-70
2022/09/04 00:13:06;;;;;;;;;;;;;;;-144.99;72.51;52115.88;5000124;28;20416;-69
2022/09/04 00:15:35;;;;;;;;;;;;;;;-144.99;72.97;52146.44;4998716;28;19925;-68
2022/09/04 00:18:05;;;;;;;;;;;;;;;-144.99;73.31;52105.69;5001174;28;19934;-67
2022/09/04 00:20:36;;;;;;;;;;;;;;;-144.99;73.33;52152.56;5000090;28;19926;-69
2022/09/04 00:23:09;;;;;;;;;;;;;;;-144.99;74.11;52142.38;4996278;28;19929;-68
2022/09/04 00:25:40;;;;;;;;;;;;;;;-144.99;74.44;52138.28;4996747;28;20142;-68
2022/09/04 00:28:10;;;;;;;;;;;;;;;-144.99;74.82;52130.13;4998571;28;19929;-68
2022/09/04 00:30:40;;;;;;;;;;;;;;;-144.99;75.40;52170.91;4998657;28;19926;-68
2022/09/04 00:33:11;;;;;;;;;;;;;;;-144.99;75.26;52166.81;5000280;28;19930;-68
2022/09/04 00:35:39;;;;;;;;;;;;;;;-144.99;75.58;52154.59;4998784;28;20299;-70
2022/09/04 00:38:08;;;;;;;;;;;;;;;-144.99;76.17;52162.75;4999839;28;20038;-67
2022/09/04 00:40:38;;;;;;;;;;;;;;;-144.99;76.57;52174.97;5003219;28;19929;-68
2022/09/04 00:43:25;;;;;;;;;;;;;;;-144.99;76.60;52134.22;5001048;28;19940;-69
2022/09/04 00:46:04;;;;;;;;;;;;;;;-144.99;77.27;52142.38;5001785;28;19972;-68
2022/09/04 00:48:41;;;;;;;;;;;;;;;-144.99;77.11;52142.38;5001431;28;19929;-68
2022/09/04 00:51:16;;;;;;;;;;;;;;;-144.99;77.48;52166.81;5001155;28;19936;-69
2022/09/04 00:53:51;;;;;;;;;;;;;;;-144.99;77.60;52142.38;5002457;28;19929;-68
2022/09/04 00:56:29;;;;;;;;;;;;;;;-144.99;77.74;52179.06;5001806;28;19933;-68
2022/09/04 00:59:03;;;;;;;;;;;;;;;-144.99;78.72;52174.97;5000160;28;19933;-69
2022/09/04 01:01:29;;;;;;;;;;;;;;;-144.99;78.27;52158.66;5000945;28;20052;-67
2022/09/04 01:04:10;;;;;;;;;;;;;;;-144.99;78.14;52142.38;4998582;28;20377;-69
2022/09/04 01:06:42;;;;;;;;;;;;;;;-144.99;78.97;52179.06;4995498;28;20040;-68
2022/09/04 01:09:21;;;;;;;;;;;;;;;-144.99;79.05;52162.75;4997598;28;19932;-68
2022/09/04 01:11:52;;;;;;;;;;;;;;;-144.99;79.34;52160.72;4999897;28;19977;-68
2022/09/04 01:14:24;;;;;;;;;;;;;;;-144.99;79.34;52130.13;4999525;28;19932;-70
2022/09/04 01:16:54;;;;;;;;;;;;;;;-144.99;79.49;52154.59;5002635;28;20481;-69
2022/09/04 01:19:29;;;;;;;;;;;;;;;-144.99;79.39;52166.81;4995373;28;20028;-68
2022/09/04 01:22:03;;;;;;;;;;;;;;;-144.99;79.29;52146.44;4998302;28;19932;-69
2022/09/04 01:24:35;;;;;;;;;;;;;;;-144.99;79.57;52164.78;5001974;28;19940;-69
2022/09/04 01:27:08;;;;;;;;;;;;;;;-144.99;79.67;52152.56;4994194;28;19971;-69
2022/09/04 01:29:38;;;;;;;;;;;;;;;-144.99;79.65;52134.22;4999551;28;19944;-68
2022/09/04 01:32:09;;;;;;;;;;;;;;;-144.99;79.95;52166.81;4996019;28;19984;-68
2022/09/04 01:34:39;;;;;;;;;;;;;;;-144.99;79.90;52154.59;5000825;28;19929;-68
2022/09/04 01:37:14;;;;;;;;;;;;;;;-144.99;80.04;52166.81;4999063;28;19984;-69
2022/09/04 01:39:44;;;;;;;;;;;;;;;-144.99;79.93;52121.97;4993843;28;19925;-69
2022/09/04 01:42:16;;;;;;;;;;;;;;;-144.99;80.08;52148.47;4998089;28;20017;-69
2022/09/04 01:44:43;;;;;;;;;;;;;;;-144.99;80.04;52138.28;5000912;28;19925;-69
2022/09/04 01:47:15;;;;;;;;;;;;;;;-144.99;80.22;52193.31;4997396;28;19926;-69
2022/09/04 01:49:46;;;;;;;;;;;;;;;-144.99;80.25;52142.38;5001021;28;19925;-69
2022/09/04 01:52:35;;;;;;;;;;;;;;;-144.99;80.22;52154.59;4998232;28;19933;-69
2022/09/04 01:55:08;;;;;;;;;;;;;;;-144.99;80.63;52158.66;5004192;28;20012;-67
2022/09/04 01:57:41;;;;;;;;;;;;;;;-144.99;80.63;52121.97;4999618;28;19932;-68
2022/09/04 02:00:10;;;;;;;;;;;;;;;-144.99;80.43;52170.91;4996734;28;19936;-68
2022/09/04 02:02:45;;;;;;;;;;;;;;;-144.99;80.21;52142.38;4992865;28;19968;-70
2022/09/04 02:05:16;;;;;;;;;;;;;;;-144.99;80.96;52158.66;4997328;28;19930;-70
2022/09/04 02:07:45;;;;;;;;;;;;;;;-144.99;81.26;52187.19;4993108;28;20037;-69
2022/09/04 02:10:16;;;;;;;;;;;;;;;-144.99;82.18;52187.19;4999360;28;19933;-69
2022/09/04 02:12:49;;;;;;;;;;;;;;;-144.99;81.56;52134.22;4999102;28;20317;-71
2022/09/04 02:15:22;;;;;;;;;;;;;;;-144.99;81.34;52142.38;4998914;28;20569;-68
2022/09/04 02:17:56;;;;;;;;;;;;;;;-144.99;81.22;52162.75;4997710;28;19930;-70
2022/09/04 02:20:24;;;;;;;;;;;;;;;-144.99;81.17;52142.38;4994788;28;20017;-69
2022/09/04 02:22:56;;;;;;;;;;;;;;;-144.99;80.92;52166.81;4992661;28;19936;-72
2022/09/04 02:25:28;;;;;;;;;;;;;;;-144.99;80.94;52154.59;4997375;28;19925;-69
2022/09/04 02:28:01;;;;;;;;;;;;;;;-144.99;81.21;52126.06;4998001;28;19982;-67
2022/09/04 02:30:32;;;;;;;;;;;;;;;-144.99;81.04;52189.25;4999765;28;19960;-71
2022/09/04 02:33:04;;;;;;;;;;;;;;;-144.99;81.07;52162.75;4997468;28;19926;-70
2022/09/04 02:35:34;;;;;;;;;;;;;;;-144.99;80.93;52126.06;4998611;28;19934;-71
2022/09/04 02:38:05;;;;;;;;;;;;;;;-144.99;80.74;52150.53;5000474;28;19940;-69
2022/09/04 02:40:36;;;;;;;;;;;;;;;-144.99;81.00;52132.19;5004641;28;19944;-71
2022/09/04 02:43:15;;;;;;;;;;;;;;;-144.99;80.87;52191.28;5024301;28;19977;-72
2022/09/04 02:45:44;;;;;;;;;;;;;;;-144.99;80.63;52158.66;5027172;28;19921;-71
2022/09/04 02:48:16;;;;;;;;;;;;;;;-144.99;80.53;52166.81;5027724;28;19921;-72
2022/09/04 02:50:52;;;;;;;;;;;;;;;-144.99;80.40;52191.28;5029923;28;19924;-72
2022/09/04 02:53:24;;;;;;;;;;;;;;;-144.99;80.31;52183.13;5028542;28;19936;-72
2022/09/04 02:55:58;;;;;;;;;;;;;;;-144.99;80.41;52132.19;5027934;28;19988;-70
2022/09/04 02:58:32;;;;;;;;;;;;;;;-144.99;80.32;52195.34;5031049;28;19972;-73
2022/09/04 03:01:03;;;;;;;;;;;;;;;-144.99;80.71;52138.28;5030039;28;19930;-72
2022/09/04 03:03:31;;;;;;;;;;;;;;;-144.99;80.60;52148.47;5022314;28;20017;-70
2022/09/04 03:06:01;;;;;;;;;;;;;;;-144.99;80.52;52142.38;5021697;28;19955;-70
2022/09/04 03:08:33;;;;;;;;;;;;;;;-144.99;80.52;52166.81;5020829;28;19933;-69
2022/09/04 03:11:04;;;;;;;;;;;;;;;-144.99;80.50;52179.06;5014363;28;19926;-69
2022/09/04 03:13:36;;;;;;;;;;;;;;;-144.99;80.41;52154.59;5011958;28;20029;-70
2022/09/04 03:16:09;;;;;;;;;;;;;;;-144.99;80.64;52154.59;5013407;28;20358;-69
2022/09/04 03:18:52;;;;;;;;;;;;;;;-144.99;81.08;52179.06;5011553;28;20009;-70
2022/09/04 03:21:23;;;;;;;;;;;;;;;-144.99;81.02;52170.91;5012901;28;19914;-69
2022/09/04 03:23:52;;;;;;;;;;;;;;;-144.99;80.90;52156.63;5020807;28;19913;-70
2022/09/04 03:26:21;;;;;;;;;;;;;;;-144.99;81.09;52179.06;5027147;28;19925;-68
2022/09/04 03:28:55;;;;;;;;;;;;;;;-144.99;81.33;52166.81;5027833;28;19913;-70
2022/09/04 03:31:26;;;;;;;;;;;;;;;-144.99;81.36;52172.94;5027154;28;19932;-69
2022/09/04 03:33:57;;;;;;;;;;;;;;;-144.99;81.22;52187.19;5011528;28;20281;-70
2022/09/04 03:36:28;;;;;;;;;;;;;;;-144.99;81.19;52158.66;5005925;28;19945;-69
2022/09/04 03:39:03;;;;;;;;;;;;;;;-144.99;81.33;52195.34;5000592;28;19926;-69
2022/09/04 03:41:36;;;;;;;;;;;;;;;-144.99;81.19;52154.59;4999084;28;19957;-70
2022/09/04 03:44:10;;;;;;;;;;;;;;;-144.99;81.22;52203.50;5004256;28;19929;-71
2022/09/04 03:46:40;;;;;;;;;;;;;;;-144.99;80.87;52154.59;5003353;28;19929;-70
2022/09/04 03:49:15;;;;;;;;;;;;;;;-144.99;80.95;52199.44;5003722;28;19944;-71
2022/09/04 03:51:45;;;;;;;;;;;;;;;-144.99;81.01;52187.19;5002357;28;19930;-70
2022/09/04 03:54:23;;;;;;;;;;;;;;;-144.99;81.59;52158.66;5003698;28;19925;-70
2022/09/04 03:57:04;;;;;;;;;;;;;;;-144.99;81.10;52154.59;5000024;28;20442;-70
2022/09/04 03:59:40;;;;;;;;;;;;;;;-144.99;81.04;52174.97;5002377;28;20417;-71
2022/09/04 04:02:12;;;;;;;;;;;;;;;-144.99;81.01;52166.81;5002130;28;19930;-71
2022/09/04 04:04:59;;;;;;;;;;;;;;;-144.99;81.32;52166.81;4997967;28;20340;-69
2022/09/04 04:07:36;;;;;;;;;;;;;;;-144.99;81.45;52172.94;4998273;28;19936;-69
2022/09/04 04:10:07;;;;;;;;;;;;;;;-144.99;81.31;52183.13;4997159;28;20028;-70
2022/09/04 04:12:41;;;;;;;;;;;;;;;-144.99;81.24;52179.06;4999044;28;20012;-69
2022/09/04 04:15:13;;;;;;;;;;;;;;;-144.99;81.14;52205.53;4999967;28;19925;-71
2022/09/04 04:17:48;;;;;;;;;;;;;;;-144.99;80.89;52152.56;5001881;28;19987;-71
2022/09/04 04:20:23;;;;;;;;;;;;;;;-144.99;80.82;52164.78;5001364;28;19956;-71
2022/09/04 04:23:16;;;;;;;;;;;;;;;-144.99;80.59;52191.28;5005040;28;20027;-72
2022/09/04 04:25:49;;;;;;;;;;;;;;;-144.99;80.29;52179.06;5000236;28;19934;-70
2022/09/04 04:28:24;;;;;;;;;;;;;;;-144.99;80.23;52179.06;5001986;28;19991;-72
2022/09/04 04:30:53;;;;;;;;;;;;;;;-144.99;80.36;52215.75;4996472;28;19933;-69
2022/09/04 04:33:35;;;;;;;;;;;;;;;-144.99;80.44;52134.22;5000905;28;19926;-71
2022/09/04 04:36:08;;;;;;;;;;;;;;;-144.99;80.61;52187.19;5001067;28;19930;-70
2022/09/04 04:38:46;;;;;;;;;;;;;;;-144.99;80.74;52162.75;5003037;28;19933;-72
2022/09/04 04:41:20;;;;;;;;;;;;;;;-144.99;81.00;52164.78;5002559;28;20017;-70
2022/09/04 04:43:53;;;;;;;;;;;;;;;-144.99;81.00;52170.91;5004014;28;20000;-71
2022/09/04 04:46:27;;;;;;;;;;;;;;;-144.99;81.31;52170.91;5003492;28;20015;-71
2022/09/04 04:49:17;;;;;;;;;;;;;;;-144.99;81.19;52166.81;5000219;28;19933;-71
2022/09/04 04:51:56;;;;;;;;;;;;;;;-144.99;81.76;52130.13;4999950;28;19926;-70
2022/09/04 04:54:33;;;;;;;;;;;;;;;-144.99;81.80;52203.50;5004011;28;19937;-71
2022/09/04 04:57:04;;;;;;;;;;;;;;;-144.99;81.49;52191.28;5002551;28;19930;-71
2022/09/04 04:59:35;;;;;;;;;;;;;;;-144.99;81.46;52160.72;5002205;28;19936;-71
2022/09/04 05:02:09;;;;;;;;;;;;;;;-144.99;81.63;52199.44;5001454;28;20460;-71
2022/09/04 05:04:44;;;;;;;;;;;;;;;-144.99;81.30;52162.75;5000231;28;20282;-70
2022/09/04 05:07:16;;;;;;;;;;;;;;;-144.99;80.83;52158.66;4998428;28;20396;-71
2022/09/04 05:09:47;;;;;;;;;;;;;;;-144.99;80.44;52183.13;5000678;28;20435;-71
2022/09/04 05:12:19;;;;;;;;;;;;;;;-144.99;79.79;52132.19;5000685;28;19987;-71
2022/09/04 05:14:49;;;;;;;;;;;;;;;-144.99;79.48;52162.75;5002617;28;19929;-71
2022/09/04 05:17:23;;;;;;;;;;;;;;;-144.99;79.18;52138.28;5002430;28;20012;-70
2022/09/04 05:19:52;;;;;;;;;;;;;;;-144.99;78.66;52179.06;5002833;28;20012;-71
2022/09/04 05:22:22;;;;;;;;;;;;;;;-144.99;78.00;52199.44;5000853;28;19930;-71
2022/09/04 05:24:53;;;;;;;;;;;;;;;-144.99;78.44;52158.66;5003404;28;19929;-72
2022/09/04 05:27:32;;;;;;;;;;;;;;;-144.99;78.49;52179.06;4944550;28;1754317;-69
2022/09/04 05:30:03;;;;;;;;;;;;;;;-144.99;78.01;52132.19;5004732;28;20511;-69
2022/09/04 05:32:33;;;;;;;;;;;;;;;-144.99;77.42;52126.06;5007767;28;19926;-70
2022/09/04 05:35:05;;;;;;;;;;;;;;;-144.99;76.82;52126.06;5000285;28;19929;-70
2022/09/04 05:37:37;;;;;;;;;;;;;;;-144.99;76.29;52183.13;5001105;28;19929;-69
2022/09/04 05:40:06;;;;;;;;;;;;;;;-144.99;75.63;52166.81;5004699;28;19925;-70
2022/09/04 05:42:44;;;;;;;;;;;;;;;-144.99;75.08;52089.38;5003026;28;19965;-70
2022/09/04 05:45:16;;;;;;;;;;;;;;;-144.99;74.22;52136.25;5001774;28;20507;-72
2022/09/04 05:47:50;;;;;;;;;;;;;;;-144.99;73.46;52134.22;5003672;28;19933;-70
2022/09/04 05:50:26;;;;;;;;;;;;;;;-144.99;72.93;52124.03;5002187;28;19934;-70
2022/09/04 05:52:59;;;;;;;;;;;;;;;-144.99;71.62;52162.75;4998941;28;20422;-71
2022/09/04 05:55:43;;;;;;;;;;;;;;;-144.99;71.26;52130.13;5003489;28;19929;-70
2022/09/04 05:58:21;;;;;;;;;;;;;;;-144.99;70.85;52126.06;5003339;28;19932;-70
2022/09/04 06:00:52;;;;;;;;;;;;;;;-144.99;70.32;52142.38;5002737;28;20557;-71
2022/09/04 06:03:33;;;;;;;;;;;;;;;-144.99;69.82;52142.38;5000556;28;19926;-70
2022/09/04 06:06:06;;;;;;;;;;;;;;;-144.99;68.88;52130.13;5001499;28;20269;-71
2022/09/04 06:08:38;;;;;;;;;;;;;;;-144.99;68.18;52156.63;5001650;28;20471;-70
2022/09/04 06:11:24;;;;;;;;;;;;;;;-144.99;67.73;52154.59;5002122;28;20732;-71
2022/09/04 06:14:08;;;;;;;;;;;;;;;-144.99;66.89;52142.38;5000324;28;19929;-71
2022/09/04 06:16:45;;;;;;;;;;;;;;;-144.99;66.59;52117.91;5001164;28;19929;-70
2022/09/04 06:19:22;;;;;;;;;;;;;;;-144.99;65.86;52079.19;5000542;28;19925;-71
2022/09/04 06:22:03;;;;;;;;;;;;;;;-144.99;65.36;52113.84;4999861;28;20439;-70
2022/09/04 06:24:38;;;;;;;;;;;;;;;-144.99;64.50;52130.13;5003019;28;19940;-69
2022/09/04 06:27:12;;;;;;;;;;;;;;;-144.99;63.65;52154.59;5007506;28;19936;-70
2022/09/04 06:29:57;;;;;;;;;;;;;;;-144.99;63.63;52105.69;5003356;28;19936;-69
2022/09/04 06:32:39;;;;;;;;;;;;;;;-144.99;62.69;52113.84;5006454;28;20444;-69
2022/09/04 06:35:15;;;;;;;;;;;;;;;-144.99;62.47;52095.50;5002644;28;20012;-71
2022/09/04 06:37:45;;;;;;;;;;;;;;;-144.99;61.81;52140.31;5006886;28;19929;-69
2022/09/04 06:40:21;;;;;;;;;;;;;;;-144.99;61.58;52126.06;5005792;28;19933;-70
2022/09/04 06:43:02;;;;;;;;;;;;;;;-144.99;60.96;52079.19;5005164;28;20313;-69
2022/09/04 06:45:35;;;;;;;;;;;;;;;-144.99;60.37;52077.16;5004543;28;20696;-70
2022/09/04 06:48:07;;;;;;;;;;;;;;;-144.99;59.99;52130.13;5007145;28;20449;-69
2022/09/04 06:50:42;;;;;;;;;;;;;;;-144.99;59.86;52101.59;5002196;28;19929;-70
2022/09/04 06:53:17;;;;;;;;;;;;;;;-144.99;58.93;52103.66;5000380;28;19935;-69
2022/09/04 06:55:49;;;;;;;;;;;;;;;-144.99;59.11;52117.91;5001711;28;20044;-68
2022/09/04 06:58:37;;;;;;;;;;;;;;;-144.99;58.14;52138.28;5004307;28;19926;-69
2022/09/04 07:01:07;;;;;;;;;;;;;;;-144.99;57.66;52113.84;5004696;28;20385;-71
2022/09/04 07:03:39;;;;;;;;;;;;;;;-144.99;57.12;52109.75;5000351;28;19956;-71
2022/09/04 07:06:11;;;;;;;;;;;;;;;-144.99;56.59;52107.72;5000315;28;19925;-71
2022/09/04 07:08:47;;;;;;;;;;;;;;;-144.99;56.38;52105.69;5004576;28;19929;-72
2022/09/04 07:11:19;;;;;;;;;;;;;;;-144.99;55.50;52093.44;5004006;28;19925;-71
2022/09/04 07:13:51;;;;;;;;;;;;;;;-144.99;54.67;52081.22;5001098;28;19933;-70
2022/09/04 07:16:29;;;;;;;;;;;;;;;-144.99;54.12;52113.84;5002900;28;19925;-73
2022/09/04 07:19:11;;;;;;;;;;;;;;;-144.99;53.74;52117.91;5005917;28;20443;-73
2022/09/04 07:21:44;;;;;;;;;;;;;;;-144.99;53.13;52085.31;4991635;28;19926;-75
2022/09/04 07:24:16;;;;;;;;;;;;;;;-144.99;52.51;52054.72;5005126;28;19952;-74
2022/09/04 07:26:48;;;;;;;;;;;;;;;-144.99;51.72;52105.69;5002029;28;19926;-72
2022/09/04 07:29:27;;;;;;;;;;;;;;;-144.99;51.10;52079.19;5005073;28;20008;-74
2022/09/04 07:31:57;;;;;;;;;;;;;;;-144.99;51.03;52085.31;5002625;28;19960;-74
2022/09/04 07:34:27;;;;;;;;;;;;;;;-144.99;50.69;52085.31;5002248;28;19956;-74
2022/09/04 07:37:00;;;;;;;;;;;;;;;-144.99;50.61;52105.69;5004452;28;20542;-75
2022/09/04 07:39:30;;;;;;;;;;;;;;;-144.99;50.35;52048.63;5004211;28;19930;-75
2022/09/04 07:42:02;;;;;;;;;;;;;;;-144.99;49.83;52089.38;5008093;28;19926;-77
2022/09/04 07:44:33;;;;;;;;;;;;;;;-144.99;49.30;52026.19;5015940;28;20436;-75
2022/09/04 07:47:12;;;;;;;;;;;;;;;-144.99;48.46;52064.91;5011560;28;20019;-74
2022/09/04 07:49:42;;;;;;;;;;;;;;;-144.99;48.58;52054.72;5011031;28;19934;-80
2022/09/04 07:52:16;;;;;;;;;;;;;;;-144.99;49.17;52073.06;5008424;28;19926;-82
2022/09/04 07:54:51;;;;;;;;;;;;;;;-144.99;48.69;52060.84;5014786;28;19930;-79
2022/09/04 07:57:28;;;;;;;;;;;;;;;-144.99;48.24;52069.00;5013373;28;20008;-79
2022/09/04 08:00:07;;;;;;;;;;;;;;;-144.99;47.55;52001.75;5017973;28;19925;-80
2022/09/04 08:02:50;;;;;;;;;;;;;;;-144.99;47.08;52044.53;5012767;28;19926;-78
2022/09/04 08:05:21;;;;;;;;;;;;;;;-144.99;47.17;52040.47;5006884;28;19936;-79
2022/09/04 08:08:02;;;;;;;;;;;;;;;-144.99;46.86;52036.38;5011025;28;19929;-81
2022/09/04 08:10:31;;;;;;;;;;;;;;;-144.99;46.93;52048.63;5009983;28;19936;-80
2022/09/04 08:13:12;;;;;;;;;;;;;;;-144.99;47.22;52040.47;5017313;28;19936;-81
2022/09/04 08:15:42;;;;;;;;;;;;;;;-144.99;46.49;52040.47;5012188;28;19933;-80
2022/09/04 08:18:20;;;;;;;;;;;;;;;-144.99;46.47;52046.56;5028431;28;19988;-80
2022/09/04 08:20:51;;;;;;;;;;;;;;;-144.99;46.39;52020.09;5027936;28;19918;-82
2022/09/04 08:23:40;;;;;;;;;;;;;;;-144.99;46.23;52064.91;5036761;28;19933;-81
2022/09/04 08:26:16;;;;;;;;;;;;;;;-144.99;45.92;52040.47;5037594;28;19913;-82
2022/09/04 08:28:58;;;;;;;;;;;;;;;-144.99;46.23;52016.00;5020999;22;20709;-66
2022/09/04 08:31:29;;;;;;;;;;;;;;;-144.99;45.75;52052.69;4981036;28;19925;-66
2022/09/04 08:34:09;;;;;;;;;;;;;;;-144.99;45.89;52044.53;4986339;28;20053;-65
2022/09/04 08:36:40;;;;;;;;;;;;;;;-144.99;45.81;52052.69;4990332;28;19941;-65
2022/09/04 08:39:10;;;;;;;;;;;;;;;-144.99;45.77;51999.69;4989268;28;19929;-66
2022/09/04 08:42:03;;;;;;;;;;;;;;;-144.99;45.25;52020.09;4986312;28;19925;-83
2022/09/04 08:44:48;;;;;;;;;;;;;;;-144.99;45.52;52028.22;4992852;28;19930;-82
2022/09/04 08:47:34;;;;;;;;;;;;;;;-144.99;45.13;52056.78;4992362;28;19925;-82
2022/09/04 08:50:22;;;;;;;;;;;;;;;-144.99;45.41;52022.13;4992860;28;19926;-82
2022/09/04 08:53:12;;;;;;;;;;;;;;;-144.99;45.23;52007.84;4997255;28;20294;-81
2022/09/04 08:55:54;;;;;;;;;;;;;;;-144.99;44.79;52044.53;4991019;28;19930;-82
2022/09/04 08:58:32;;;;;;;;;;;;;;;-144.99;45.12;52040.47;4998264;28;20492;-83
2022/09/04 09:01:13;;;;;;;;;;;;;;;-144.99;44.68;52022.13;4996295;28;19968;-83
2022/09/04 09:03:58;;;;;;;;;;;;;;;-144.99;44.23;52009.91;4647815;28;10001510;-83
2022/09/04 09:06:51;;;;;;;;;;;;;;;-144.99;44.42;51991.56;4987534;28;19929;-82
2022/09/04 09:09:35;;;;;;;;;;;;;;;-144.99;43.41;51991.56;4995333;28;20032;-82
2022/09/04 09:12:21;;;;;;;;;;;;;;;-144.99;42.62;51987.47;4996232;28;19930;-82
2022/09/04 09:15:03;;;;;;;;;;;;;;;-144.99;42.56;51926.34;4994901;28;19930;-85
2022/09/04 09:17:37;;;;;;;;;;;;;;;-144.99;41.98;51967.09;4996671;28;20003;-84
2022/09/04 09:20:14;;;;;;;;;;;;;;;-144.99;41.93;51971.16;4982817;28;20441;-76
2022/09/04 09:22:50;;;;;;;;;;;;;;;-144.99;41.94;51995.63;4985512;28;19976;-74
2022/09/04 09:25:19;;;;;;;;;;;;;;;-144.99;42.04;51960.97;4984666;28;19989;-71
2022/09/04 09:28:00;;;;;;;;;;;;;;;-144.99;41.91;51952.81;4984043;28;19934;-77
2022/09/04 09:30:36;;;;;;;;;;;;;;;-144.99;41.54;51983.41;4985938;28;19972;-78
2022/09/04 09:33:26;;;;;;;;;;;;;;;-144.99;41.16;51969.13;4987079;28;19934;-75
2022/09/04 09:36:08;;;;;;;;;;;;;;;-144.99;40.88;51987.47;4978276;28;20310;-74
2022/09/04 09:38:44;;;;;;;;;;;;;;;-144.99;40.65;51967.09;4980278;28;20428;-73
2022/09/04 09:41:27;;;;;;;;;;;;;;;-144.99;39.94;51946.72;4977714;28;19940;-73
2022/09/04 09:44:20;;;;;;;;;;;;;;;-144.99;40.26;51926.34;4985024;28;20453;-72
2022/09/04 09:47:00;;;;;;;;;;;;;;;-144.99;39.54;51979.31;4942396;28;19937;-71
2022/09/04 09:49:48;;;;;;;;;;;;;;;-144.99;38.95;51926.34;4980349;28;19937;-72
2022/09/04 09:52:27;;;;;;;;;;;;;;;-144.99;39.09;51934.50;4963756;28;20275;-72
2022/09/04 09:55:18;;;;;;;;;;;;;;;-144.99;38.46;51932.44;4984380;28;19930;-71
2022/09/04 09:58:12;;;;;;;;;;;;;;;-144.99;38.48;51926.34;4984402;28;20653;-72
2022/09/04 10:00:45;;;;;;;;;;;;;;;-144.99;38.10;51934.50;4983658;28;19957;-72
2022/09/04 10:03:29;;;;;;;;;;;;;;;-144.99;37.95;51926.34;4983784;28;20442;-72
2022/09/04 10:06:12;;;;;;;;;;;;;;;-144.99;38.14;51905.97;4982247;28;19945;-71
2022/09/04 10:08:53;;;;;;;;;;;;;;;-144.99;37.59;51942.63;4972134;28;19949;-71
2022/09/04 10:11:35;;;;;;;;;;;;;;;-144.99;36.88;51908.00;4979171;28;20024;-71
2022/09/04 10:14:17;;;;;;;;;;;;;;;-144.99;36.99;51869.28;4986579;28;19933;-72
2022/09/04 10:17:11;;;;;;;;;;;;;;;-144.99;36.41;51899.84;4983645;28;19934;-71
2022/09/04 10:19:54;;;;;;;;;;;;;;;-144.99;35.75;51930.41;4985751;28;20005;-71
2022/09/04 10:22:42;;;;;;;;;;;;;;;-144.99;35.55;51910.03;4986357;28;19991;-72
2022/09/04 10:25:23;;;;;;;;;;;;;;;-144.99;35.42;51879.47;4983231;28;20382;-71
2022/09/04 10:28:08;;;;;;;;;;;;;;;-144.99;35.27;51857.03;4978683;28;19936;-71
2022/09/04 10:30:46;;;;;;;;;;;;;;;-144.99;34.92;51838.72;4980814;28;19965;-71
2022/09/04 10:33:28;;;;;;;;;;;;;;;-144.99;34.67;51840.75;4984484;28;20239;-71
2022/09/04 10:36:03;;;;;;;;;;;;;;;-144.99;34.37;51810.16;4984061;28;19977;-71
2022/09/04 10:38:36;;;;;;;;;;;;;;;-144.99;34.53;51828.50;4986163;28;20536;-71
2022/09/04 10:41:28;;;;;;;;;;;;;;;-144.99;33.58;51787.75;4976731;28;20036;-72
2022/09/04 10:44:04;;;;;;;;;;;;;;;-144.99;33.14;51828.50;4980811;28;19968;-73
2022/09/04 10:46:35;;;;;;;;;;;;;;;-144.99;32.90;51808.13;4983494;28;19969;-69
2022/09/04 10:49:17;;;;;;;;;;;;;;;-144.99;33.18;51779.59;4982029;28;19960;-70
2022/09/04 10:52:07;;;;;;;;;;;;;;;-144.99;33.21;51824.44;4985185;28;20008;-75
2022/09/04 10:54:43;;;;;;;;;;;;;;;-144.99;32.63;51789.78;4988857;28;19976;-75
2022/09/04 10:57:18;;;;;;;;;;;;;;;-144.99;32.09;51781.63;4987405;28;19940;-76
2022/09/04 10:59:50;;;;;;;;;;;;;;;-144.99;32.12;51775.53;4983835;28;20682;-77
2022/09/04 11:02:37;;;;;;;;;;;;;;;-144.99;32.17;51791.84;4987345;28;20012;-76
2022/09/04 11:05:31;;;;;;;;;;;;;;;-144.99;31.85;51824.44;4974667;28;20150;-76
2022/09/04 11:08:15;;;;;;;;;;;;;;;-144.99;32.14;51799.97;4962597;28;20390;-76
2022/09/04 11:11:00;;;;;;;;;;;;;;;-144.99;32.55;51816.28;4985176;28;19930;-75
2022/09/04 11:13:47;;;;;;;;;;;;;;;-144.99;32.55;51797.94;4988434;28;19961;-76
2022/09/04 11:16:22;;;;;;;;;;;;;;;-144.99;32.33;51783.69;4976254;28;20032;-74
2022/09/04 11:18:59;;;;;;;;;;;;;;;-144.99;32.00;51779.59;4991173;28;20024;-77
2022/09/04 11:21:44;;;;;;;;;;;;;;;-144.99;32.50;51832.59;4992317;28;20017;-75
2022/09/04 11:24:28;;;;;;;;;;;;;;;-144.99;32.01;51808.13;4987928;28;19961;-77
2022/09/04 11:27:18;;;;;;;;;;;;;;;-144.99;31.82;51797.94;4982776;28;20409;-76
2022/09/04 11:29:54;;;;;;;;;;;;;;;-144.99;31.97;51793.88;4980713;28;20085;-77
2022/09/04 11:32:35;;;;;;;;;;;;;;;-144.99;31.80;51791.84;4980770;28;19940;-75
2022/09/04 11:35:29;;;;;;;;;;;;;;;-144.99;31.97;51840.75;4973190;28;19926;-76
2022/09/04 11:38:22;;;;;;;;;;;;;;;-144.99;32.19;51816.28;4983316;28;20375;-76
2022/09/04 11:41:04;;;;;;;;;;;;;;;-144.99;31.67;51824.44;4968182;28;20052;-75
2022/09/04 11:43:42;;;;;;;;;;;;;;;-144.99;32.01;51804.06;4982091;28;20595;-77
2022/09/04 11:46:26;;;;;;;;;;;;;;;-144.99;32.24;51804.06;4979305;28;20120;-76
2022/09/04 11:49:06;;;;;;;;;;;;;;;-144.99;32.42;51832.59;4980795;28;19935;-76
2022/09/04 11:51:50;;;;;;;;;;;;;;;-144.99;32.59;51852.97;4982914;28;20582;-76
2022/09/04 11:54:35;;;;;;;;;;;;;;;-144.99;32.25;51816.28;4982116;28;19972;-76
2022/09/04 11:57:07;;;;;;;;;;;;;;;-144.99;31.95;51767.38;4980755;28;19926;-77
2022/09/04 11:59:51;;;;;;;;;;;;;;;-144.99;32.15;51808.13;4977150;28;19940;-75
2022/09/04 12:02:32;;;;;;;;;;;;;;;-144.99;31.73;51799.97;4978313;28;19936;-76
2022/09/04 12:05:06;;;;;;;;;;;;;;;-144.99;31.76;51779.59;4972817;28;20209;-77
2022/09/04 12:07:41;;;;;;;;;;;;;;;-144.99;31.26;51757.19;4986437;28;20012;-77
2022/09/04 12:10:17;;;;;;;;;;;;;;;-144.99;31.38;51779.59;4986524;28;20036;-76
2022/09/04 12:12:52;;;;;;;;;;;;;;;-144.99;31.17;51738.84;4982860;28;19933;-76
2022/09/04 12:15:36;;;;;;;;;;;;;;;-144.99;31.26;51742.91;4986464;28;19929;-76
2022/09/04 12:18:23;;;;;;;;;;;;;;;-144.99;31.44;51763.31;4982745;28;19929;-76
2022/09/04 12:20:58;;;;;;;;;;;;;;;-144.99;31.65;51763.31;4984674;28;20463;-70
2022/09/04 12:23:32;;;;;;;;;;;;;;;-144.99;32.00;51718.47;4983535;28;19958;-71
2022/09/04 12:26:12;;;;;;;;;;;;;;;-144.99;32.00;51763.31;4981639;28;19941;-66
2022/09/04 12:28:54;;;;;;;;;;;;;;;-144.99;31.69;51804.06;4993406;28;19964;-83
2022/09/04 12:31:34;;;;;;;;;;;;;;;-144.99;31.66;51783.69;4997024;28;19980;-81
2022/09/04 12:34:15;;;;;;;;;;;;;;;-144.99;31.66;51738.84;4992236;28;19933;-80
2022/09/04 12:36:58;;;;;;;;;;;;;;;-144.99;31.67;51799.97;4986890;28;19926;-82
2022/09/04 12:39:40;;;;;;;;;;;;;;;-144.99;31.30;51736.81;4992298;28;19937;-80
2022/09/04 12:42:11;;;;;;;;;;;;;;;-144.99;31.06;51773.50;4991321;28;19929;-80
2022/09/04 12:44:43;;;;;;;;;;;;;;;-144.99;30.90;51755.16;4993501;28;19934;-81
2022/09/04 12:47:18;;;;;;;;;;;;;;;-144.99;31.09;51736.81;4994422;28;19957;-81
2022/09/04 12:49:57;;;;;;;;;;;;;;;-144.99;30.60;51765.34;4994805;28;20025;-81
2022/09/04 12:52:33;;;;;;;;;;;;;;;-144.99;30.90;51804.06;4996419;28;19930;-82
2022/09/04 12:55:05;;;;;;;;;;;;;;;-144.99;31.19;51791.84;4995510;28;19968;-81
2022/09/04 12:57:38;;;;;;;;;;;;;;;-144.99;31.25;51830.56;4990676;28;20310;-81
2022/09/04 13:00:08;;;;;;;;;;;;;;;-144.99;31.25;51771.44;4995221;28;19926;-80
2022/09/04 13:02:45;;;;;;;;;;;;;;;-144.99;31.04;51802.03;4992965;28;19984;-80
2022/09/04 13:05:30;;;;;;;;;;;;;;;-144.99;31.29;51761.25;4986101;28;19965;-80
2022/09/04 13:08:03;;;;;;;;;;;;;;;-144.99;30.93;51744.97;4995273;28;20131;-80
2022/09/04 13:10:36;;;;;;;;;;;;;;;-144.99;31.34;51822.41;5004117;28;19930;-80